createdAt,value
2017-01-18T00:00:37.497Z,16.31
2017-01-18T00:01:48.216Z,16.25
2017-01-18T00:02:58.144Z,16.31
2017-01-18T00:04:08.454Z,16.34
2017-01-18T00:05:18.778Z,16.28
2017-01-18T00:06:29.510Z,16.31
2017-01-18T00:07:39.825Z,16.32
2017-01-18T00:08:50.134Z,16.34
2017-01-18T00:10:00.055Z,16.31
2017-01-18T00:11:10.378Z,16.32
2017-01-18T00:12:21.085Z,16.28
2017-01-18T00:13:31.001Z,16.29
2017-01-18T00:14:41.312Z,16.28
2017-01-18T00:15:51.629Z,16.28
2017-01-18T00:17:01.943Z,16.31
2017-01-18T00:18:12.269Z,16.28
2017-01-18T00:19:22.976Z,16.34
2017-01-18T00:20:33.290Z,16.37
2017-01-18T00:21:43.213Z,16.4
2017-01-18T00:22:53.136Z,16.37
2017-01-18T00:24:03.050Z,16.36
2017-01-18T00:25:13.754Z,16.36
2017-01-18T00:26:24.462Z,16.31
2017-01-18T00:27:34.378Z,16.34
2017-01-18T00:28:44.296Z,16.37
2017-01-18T00:29:55.002Z,16.36
2017-01-18T00:31:05.304Z,16.26
2017-01-18T00:32:15.636Z,16.28
2017-01-18T00:33:26.379Z,16.36
2017-01-18T00:34:36.705Z,16.28
2017-01-18T00:35:46.628Z,16.37
2017-01-18T00:36:56.955Z,16.34
2017-01-18T00:38:07.262Z,16.34
2017-01-18T00:39:17.973Z,16.32
2017-01-18T00:40:28.683Z,16.31
2017-01-18T00:41:38.605Z,16.26
2017-01-18T00:42:49.307Z,16.22
2017-01-18T00:43:59.217Z,16.25
2017-01-18T00:45:09.140Z,16.26
2017-01-18T00:46:19.854Z,16.24
2017-01-18T00:47:30.718Z,16.24
2017-01-18T00:48:41.027Z,16.34
2017-01-18T00:49:50.990Z,16.28
2017-01-18T00:51:00.893Z,16.21
2017-01-18T00:52:11.603Z,16.21
2017-01-18T00:53:21.159Z,16.24
2017-01-18T00:54:31.073Z,16.13
2017-01-18T00:55:40.997Z,16.17
2017-01-18T00:56:51.710Z,16.25
2017-01-18T00:58:02.024Z,16.13
2017-01-18T00:59:12.354Z,16.26
2017-01-18T01:00:21.867Z,16.24
2017-01-18T01:01:32.584Z,16.22
2017-01-18T01:02:42.907Z,16.21
2017-01-18T01:03:52.443Z,16.18
2017-01-18T01:05:02.753Z,16.18
2017-01-18T01:06:13.454Z,16.26
2017-01-18T01:07:24.152Z,16.18
2017-01-18T01:08:34.468Z,16.24
2017-01-18T01:09:43.985Z,16.17
2017-01-18T01:10:54.289Z,16.21
2017-01-18T01:12:04.600Z,16.1
2017-01-18T01:13:15.310Z,16.02
2017-01-18T01:14:25.243Z,15.99
2017-01-18T01:15:35.940Z,16.12
2017-01-18T01:16:45.851Z,16.12
2017-01-18T01:17:56.160Z,16.06
2017-01-18T01:19:06.480Z,16.12
2017-01-18T01:20:16.391Z,16.1
2017-01-18T01:21:26.710Z,16.08
2017-01-18T01:22:37.019Z,16.06
2017-01-18T01:23:47.330Z,16.09
2017-01-18T01:24:57.643Z,16.02
2017-01-18T01:26:08.344Z,16.02
2017-01-18T01:27:18.683Z,16.02
2017-01-18T01:28:28.606Z,16.05
2017-01-18T01:29:38.914Z,16.03
2017-01-18T01:30:49.262Z,16
2017-01-18T01:31:59.966Z,16.03
2017-01-18T01:33:10.689Z,16.09
2017-01-18T01:34:20.603Z,16.06
2017-01-18T01:35:30.920Z,16.17
2017-01-18T01:36:41.668Z,16.08
2017-01-18T01:37:51.582Z,16.02
2017-01-18T01:39:02.285Z,16.02
2017-01-18T01:40:12.199Z,16.08
2017-01-18T01:41:21.714Z,16.02
2017-01-18T01:42:32.019Z,16.06
2017-01-18T01:43:41.937Z,16.1
2017-01-18T01:44:51.860Z,16.03
2017-01-18T01:46:01.771Z,16.03
2017-01-18T01:47:12.503Z,16.02
2017-01-18T01:48:22.807Z,16.03
2017-01-18T01:49:32.746Z,15.99
2017-01-18T01:50:43.463Z,15.96
2017-01-18T01:51:53.777Z,16.06
2017-01-18T01:53:03.287Z,16
2017-01-18T01:54:13.201Z,16.02
2017-01-18T01:55:23.118Z,16.03
2017-01-18T01:56:33.818Z,16.02
2017-01-18T01:57:44.520Z,16.09
2017-01-18T01:58:54.826Z,16.03
2017-01-18T02:00:05.146Z,15.99
2017-01-18T02:01:15.463Z,16
2017-01-18T02:02:25.773Z,16.02
2017-01-18T02:03:36.478Z,15.96
2017-01-18T02:04:47.191Z,16.05
2017-01-18T02:05:57.117Z,15.88
2017-01-18T02:07:07.822Z,15.91
2017-01-18T02:08:18.536Z,16.03
2017-01-18T02:09:29.257Z,15.96
2017-01-18T02:10:39.187Z,16.05
2017-01-18T02:11:48.720Z,15.98
2017-01-18T02:12:58.633Z,16.06
2017-01-18T02:14:08.934Z,16.03
2017-01-18T02:15:19.236Z,15.99
2017-01-18T02:16:29.149Z,16.02
2017-01-18T02:17:39.849Z,15.98
2017-01-18T02:18:50.551Z,16.03
2017-01-18T02:20:01.242Z,16.05
2017-01-18T02:21:11.158Z,15.98
2017-01-18T02:22:21.479Z,16.05
2017-01-18T02:23:31.789Z,15.88
2017-01-18T02:24:42.113Z,16
2017-01-18T02:25:52.019Z,16.08
2017-01-18T02:27:02.336Z,16.09
2017-01-18T02:28:13.056Z,16.03
2017-01-18T02:29:22.966Z,16
2017-01-18T02:30:33.276Z,16
2017-01-18T02:31:43.981Z,15.98
2017-01-18T02:32:54.295Z,15.96
2017-01-18T02:34:05.013Z,16.03
2017-01-18T02:35:15.321Z,16.02
2017-01-18T02:36:25.632Z,16.05
2017-01-18T02:37:35.958Z,15.91
2017-01-18T02:38:46.659Z,15.92
2017-01-18T02:39:56.582Z,15.99
2017-01-18T02:41:06.503Z,15.99
2017-01-18T02:42:16.797Z,15.92
2017-01-18T02:43:27.209Z,16
2017-01-18T02:44:37.527Z,15.88
2017-01-18T02:45:47.845Z,15.99
2017-01-18T02:46:58.550Z,15.94
2017-01-18T02:48:08.859Z,15.96
2017-01-18T02:49:19.583Z,15.91
2017-01-18T02:50:29.910Z,15.96
2017-01-18T02:51:40.630Z,16
2017-01-18T02:52:50.930Z,15.99
2017-01-18T02:54:00.444Z,15.99
2017-01-18T02:55:09.963Z,16.02
2017-01-18T02:56:19.513Z,15.91
2017-01-18T02:57:29.833Z,15.88
2017-01-18T02:58:40.158Z,15.98
2017-01-18T02:59:50.867Z,15.98
2017-01-18T03:01:00.376Z,16.06
2017-01-18T03:02:10.290Z,15.98
2017-01-18T03:03:20.195Z,16.05
2017-01-18T03:04:30.498Z,15.98
2017-01-18T03:05:40.806Z,15.94
2017-01-18T03:06:51.532Z,16.03
2017-01-18T03:08:01.048Z,16.02
2017-01-18T03:09:11.356Z,16
2017-01-18T03:10:21.666Z,16.03
2017-01-18T03:11:32.363Z,16.03
2017-01-18T03:12:43.062Z,16.06
2017-01-18T03:13:53.401Z,16.05
2017-01-18T03:15:03.711Z,15.98
2017-01-18T03:16:14.453Z,16.02
2017-01-18T03:17:25.156Z,16.05
2017-01-18T03:18:35.074Z,16.09
2017-01-18T03:19:45.780Z,16
2017-01-18T03:20:56.081Z,16.09
2017-01-18T03:22:06.396Z,16.12
2017-01-18T03:23:17.093Z,16.03
2017-01-18T03:24:26.997Z,16.08
2017-01-18T03:25:37.311Z,16
2017-01-18T03:26:47.224Z,16
2017-01-18T03:27:56.728Z,16.09
2017-01-18T03:29:07.048Z,16.08
2017-01-18T03:30:17.752Z,16.05
2017-01-18T03:31:28.063Z,16.08
2017-01-18T03:32:37.582Z,16.12
2017-01-18T03:33:47.883Z,16.05
2017-01-18T03:34:58.190Z,16.05
2017-01-18T03:36:08.529Z,16
2017-01-18T03:37:18.849Z,16.05
2017-01-18T03:38:29.155Z,16.05
2017-01-18T03:39:39.470Z,15.98
2017-01-18T03:40:49.384Z,16.09
2017-01-18T03:41:58.904Z,16.1
2017-01-18T03:43:09.224Z,16.09
2017-01-18T03:44:19.127Z,16.09
2017-01-18T03:45:29.838Z,16.02
2017-01-18T03:46:40.142Z,16.03
2017-01-18T03:47:50.836Z,16.03
2017-01-18T03:49:00.746Z,16.02
2017-01-18T03:50:11.463Z,16.08
2017-01-18T03:51:22.168Z,16.12
2017-01-18T03:52:32.871Z,16.08
2017-01-18T03:53:42.784Z,16.09
2017-01-18T03:54:51.928Z,16.03
2017-01-18T03:56:01.851Z,16.12
2017-01-18T03:57:12.566Z,16.08
2017-01-18T03:58:22.873Z,16.08
2017-01-18T03:59:32.792Z,16.03
2017-01-18T04:00:42.696Z,16.05
2017-01-18T04:01:52.609Z,16.05
2017-01-18T04:03:03.312Z,16.02
2017-01-18T04:04:13.623Z,16.03
2017-01-18T04:05:23.143Z,16.05
2017-01-18T04:06:32.660Z,16.09
2017-01-18T04:07:42.976Z,16.02
2017-01-18T04:08:52.497Z,16
2017-01-18T04:10:02.247Z,16.02
2017-01-18T04:11:12.554Z,16.02
2017-01-18T04:12:23.272Z,15.98
2017-01-18T04:13:33.582Z,16.05
2017-01-18T04:14:43.485Z,16.09
2017-01-18T04:15:53.399Z,16.03
2017-01-18T04:17:02.516Z,16.12
2017-01-18T04:18:12.823Z,16.1
2017-01-18T04:19:23.545Z,16.03
2017-01-18T04:20:33.858Z,15.99
2017-01-18T04:21:44.560Z,16
2017-01-18T04:22:54.472Z,15.99
2017-01-18T04:24:04.770Z,16.13
2017-01-18T04:25:15.467Z,16.17
2017-01-18T04:26:26.174Z,16.09
2017-01-18T04:27:36.880Z,16.1
2017-01-18T04:28:47.191Z,16.08
2017-01-18T04:29:57.492Z,16.1
2017-01-18T04:31:07.792Z,16.09
2017-01-18T04:32:18.493Z,16.09
2017-01-18T04:33:28.807Z,16.13
2017-01-18T04:34:38.329Z,16.06
2017-01-18T04:35:49.040Z,16
2017-01-18T04:36:59.376Z,16.06
2017-01-18T04:38:09.690Z,16.05
2017-01-18T04:39:20.396Z,16.1
2017-01-18T04:40:30.310Z,16.08
2017-01-18T04:41:41.017Z,16.05
2017-01-18T04:42:50.937Z,16.05
2017-01-18T04:44:01.247Z,16.02
2017-01-18T04:45:12.301Z,16.13
2017-01-18T04:46:22.615Z,16.03
2017-01-18T04:47:32.922Z,16.08
2017-01-18T04:48:43.625Z,16.03
2017-01-18T04:49:53.948Z,16.06
2017-01-18T04:51:04.684Z,16.09
2017-01-18T04:52:15.491Z,16.09
2017-01-18T04:53:25.791Z,16.09
2017-01-18T04:54:36.495Z,16.06
2017-01-18T04:55:46.019Z,16.13
2017-01-18T04:56:56.732Z,16.12
2017-01-18T04:58:07.045Z,16.06
2017-01-18T04:59:17.371Z,16.08
2017-01-18T05:00:28.078Z,16.1
2017-01-18T05:01:38.401Z,16.13
2017-01-18T05:02:49.103Z,16.08
2017-01-18T05:03:59.808Z,16.08
2017-01-18T05:05:10.536Z,16.09
2017-01-18T05:06:21.234Z,16.09
2017-01-18T05:07:31.176Z,16.09
2017-01-18T05:08:41.480Z,16.12
2017-01-18T05:09:52.176Z,16.12
2017-01-18T05:11:02.523Z,16
2017-01-18T05:12:12.828Z,16.09
2017-01-18T05:13:22.731Z,16.13
2017-01-18T05:14:33.432Z,16.09
2017-01-18T05:15:43.746Z,16.03
2017-01-18T05:16:54.056Z,16.16
2017-01-18T05:18:03.963Z,16.12
2017-01-18T05:19:14.290Z,16.13
2017-01-18T05:20:24.702Z,16.17
2017-01-18T05:21:35.012Z,16.1
2017-01-18T05:22:45.317Z,16.12
2017-01-18T05:23:55.646Z,16.09
2017-01-18T05:25:05.963Z,16.12
2017-01-18T05:26:16.273Z,16.09
2017-01-18T05:27:26.574Z,16.21
2017-01-18T05:28:37.278Z,16.12
2017-01-18T05:29:46.827Z,16.21
2017-01-18T05:30:56.744Z,16.21
2017-01-18T05:32:07.470Z,16.26
2017-01-18T05:33:17.787Z,16.13
2017-01-18T05:34:28.500Z,16.13
2017-01-18T05:35:38.805Z,16.17
2017-01-18T05:36:49.105Z,16.18
2017-01-18T05:37:59.336Z,16.08
2017-01-18T05:39:09.652Z,16.08
2017-01-18T05:40:19.559Z,16.09
2017-01-18T05:41:29.860Z,16.13
2017-01-18T05:42:40.186Z,16.21
2017-01-18T05:43:50.505Z,16.09
2017-01-18T05:45:01.224Z,16.16
2017-01-18T05:46:11.546Z,16.06
2017-01-18T05:47:22.264Z,16.12
2017-01-18T05:48:32.981Z,16.12
2017-01-18T05:49:43.291Z,16.06
2017-01-18T05:50:54.005Z,16.1
2017-01-18T05:52:04.748Z,16.1
2017-01-18T05:53:14.667Z,16.12
2017-01-18T05:54:25.400Z,16.08
2017-01-18T05:55:36.128Z,16.08
2017-01-18T05:56:46.850Z,16.06
2017-01-18T05:57:57.560Z,16.13
2017-01-18T05:59:08.310Z,16.09
2017-01-18T06:00:17.833Z,16.08
2017-01-18T06:01:27.901Z,16.05
2017-01-18T06:02:38.620Z,16.06
2017-01-18T06:03:48.146Z,16.13
2017-01-18T06:04:58.469Z,16.08
2017-01-18T06:06:09.177Z,16.12
2017-01-18T06:07:19.891Z,16.08
2017-01-18T06:08:30.604Z,16.16
2017-01-18T06:09:40.527Z,16.09
2017-01-18T06:10:51.228Z,16.22
2017-01-18T06:12:01.525Z,16.05
2017-01-18T06:13:12.234Z,16.26
2017-01-18T06:14:22.538Z,16.1
2017-01-18T06:15:32.850Z,16.16
2017-01-18T06:16:43.558Z,16.03
2017-01-18T06:17:54.274Z,16.13
2017-01-18T06:19:04.597Z,16.16
2017-01-18T06:20:14.507Z,16.21
2017-01-18T06:21:25.084Z,16.12
2017-01-18T06:22:35.395Z,16.09
2017-01-18T06:23:46.101Z,16.26
2017-01-18T06:24:56.413Z,16.13
2017-01-18T06:26:06.735Z,16.22
2017-01-18T06:27:17.048Z,16.21
2017-01-18T06:28:27.357Z,16.17
2017-01-18T06:29:37.676Z,16.09
2017-01-18T06:30:47.993Z,16.16
2017-01-18T06:31:58.695Z,16.09
2017-01-18T06:33:08.999Z,16.13
2017-01-18T06:34:18.150Z,16.22
2017-01-18T06:35:28.077Z,16.22
2017-01-18T06:36:38.407Z,16.25
2017-01-18T06:37:48.717Z,16.08
2017-01-18T06:38:59.424Z,16.1
2017-01-18T06:40:10.119Z,16.12
2017-01-18T06:41:19.862Z,16.13
2017-01-18T06:42:30.564Z,16.25
2017-01-18T06:43:40.513Z,16.18
2017-01-18T06:44:51.220Z,16.25
2017-01-18T06:46:01.924Z,16.17
2017-01-18T06:47:11.835Z,16.17
2017-01-18T06:48:21.761Z,16.25
2017-01-18T06:49:31.668Z,16.25
2017-01-18T06:50:41.595Z,16.18
2017-01-18T06:51:52.328Z,16.25
2017-01-18T06:53:02.257Z,16.18
2017-01-18T06:54:12.974Z,16.28
2017-01-18T06:55:23.703Z,16.26
2017-01-18T06:56:34.439Z,16.24
2017-01-18T06:57:44.762Z,16.24
2017-01-18T06:58:55.200Z,16.32
2017-01-18T07:00:05.927Z,16.36
2017-01-18T07:01:16.633Z,16.24
2017-01-18T07:02:26.565Z,16.28
2017-01-18T07:03:36.930Z,16.36
2017-01-18T07:04:47.677Z,16.32
2017-01-18T07:05:58.021Z,16.31
2017-01-18T07:07:08.735Z,16.31
2017-01-18T07:08:19.048Z,16.34
2017-01-18T07:09:29.766Z,16.41
2017-01-18T07:10:40.495Z,16.4
2017-01-18T07:11:50.802Z,16.46
2017-01-18T07:13:01.135Z,16.39
2017-01-18T07:14:11.772Z,16.4
2017-01-18T07:15:22.505Z,16.37
2017-01-18T07:16:32.856Z,16.39
2017-01-18T07:17:43.589Z,16.37
2017-01-18T07:18:54.332Z,16.37
2017-01-18T07:20:04.738Z,16.31
2017-01-18T07:21:14.672Z,16.39
2017-01-18T07:22:25.013Z,16.4
2017-01-18T07:23:35.733Z,16.36
2017-01-18T07:24:45.663Z,16.4
2017-01-18T07:25:56.014Z,16.46
2017-01-18T07:27:06.789Z,16.49
2017-01-18T07:28:17.557Z,16.39
2017-01-18T07:29:27.477Z,16.43
2017-01-18T07:30:38.409Z,16.47
2017-01-18T07:31:48.771Z,16.44
2017-01-18T07:32:59.102Z,16.39
2017-01-18T07:34:09.836Z,16.49
2017-01-18T07:35:20.623Z,16.43
2017-01-18T07:36:31.004Z,16.49
2017-01-18T07:37:40.953Z,16.51
2017-01-18T07:38:50.492Z,16.43
2017-01-18T07:40:00.483Z,16.55
2017-01-18T07:41:10.853Z,16.5
2017-01-18T07:42:21.257Z,16.44
2017-01-18T07:43:31.997Z,16.49
2017-01-18T07:44:42.343Z,16.54
2017-01-18T07:45:53.055Z,16.54
2017-01-18T07:47:03.909Z,16.64
2017-01-18T07:48:14.727Z,16.54
2017-01-18T07:49:25.525Z,16.59
2017-01-18T07:50:36.582Z,16.59
2017-01-18T07:51:47.338Z,16.51
2017-01-18T07:52:57.743Z,16.58
2017-01-18T07:54:07.718Z,16.55
2017-01-18T07:55:18.493Z,16.57
2017-01-18T07:56:28.445Z,16.62
2017-01-18T07:57:39.107Z,16.62
2017-01-18T07:58:49.066Z,16.73
2017-01-18T07:59:59.806Z,16.64
2017-01-18T08:01:10.180Z,16.65
2017-01-18T08:02:20.922Z,16.76
2017-01-18T08:03:31.637Z,16.79
2017-01-18T08:04:42.383Z,16.74
2017-01-18T08:05:52.740Z,16.66
2017-01-18T08:07:09.753Z,16.8
2017-01-18T08:08:26.745Z,16.72
2017-01-18T08:09:45.113Z,16.74
2017-01-18T08:10:55.481Z,16.84
2017-01-18T08:12:22.629Z,16.83
2017-01-18T08:14:34.345Z,16.84
2017-01-18T08:15:55.634Z,16.79
2017-01-18T08:17:13.887Z,16.86
2017-01-18T08:18:24.208Z,16.82
2017-01-18T08:19:34.177Z,16.79
2017-01-18T08:20:44.514Z,16.74
2017-01-18T08:21:55.456Z,16.77
2017-01-18T08:23:05.798Z,16.72
2017-01-18T08:24:16.544Z,16.72
2017-01-18T08:25:26.873Z,16.79
2017-01-18T08:26:36.809Z,16.89
2017-01-18T08:27:47.130Z,16.89
2017-01-18T08:28:57.448Z,16.94
2017-01-18T08:30:08.176Z,16.95
2017-01-18T08:31:18.502Z,17.01
2017-01-18T08:32:28.451Z,16.86
2017-01-18T08:33:38.381Z,16.95
2017-01-18T08:34:48.695Z,16.97
2017-01-18T08:35:59.007Z,16.95
2017-01-18T08:37:08.534Z,16.86
2017-01-18T08:38:18.870Z,16.87
2017-01-18T08:39:29.187Z,16.83
2017-01-18T08:40:39.510Z,16.86
2017-01-18T08:41:49.875Z,16.95
2017-01-18T08:43:00.197Z,16.99
2017-01-18T08:44:10.983Z,16.97
2017-01-18T08:45:21.582Z,16.97
2017-01-18T08:46:32.301Z,17.01
2017-01-18T08:47:43.038Z,16.98
2017-01-18T08:48:53.383Z,16.98
2017-01-18T08:50:04.091Z,16.92
2017-01-18T08:51:14.017Z,17.01
2017-01-18T08:52:23.556Z,16.95
2017-01-18T08:53:33.501Z,16.99
2017-01-18T08:54:44.217Z,16.97
2017-01-18T08:55:54.554Z,16.97
2017-01-18T08:57:04.888Z,16.98
2017-01-18T08:58:15.637Z,16.98
2017-01-18T08:59:26.020Z,16.95
2017-01-18T09:00:36.356Z,16.91
2017-01-18T09:01:46.696Z,17.02
2017-01-18T09:02:57.043Z,17.1
2017-01-18T09:04:07.358Z,17.07
2017-01-18T09:05:18.099Z,16.98
2017-01-18T09:06:28.848Z,17.05
2017-01-18T09:07:39.205Z,17.13
2017-01-18T09:08:49.933Z,17.14
2017-01-18T09:10:00.718Z,17.12
2017-01-18T09:11:11.057Z,17.13
2017-01-18T09:12:21.043Z,17.16
2017-01-18T09:13:31.780Z,17.12
2017-01-18T09:14:42.529Z,17.13
2017-01-18T09:15:52.903Z,17.12
2017-01-18T09:17:03.216Z,17.12
2017-01-18T09:18:13.585Z,17.1
2017-01-18T09:19:23.108Z,17.04
2017-01-18T09:20:33.827Z,17.14
2017-01-18T09:21:44.155Z,17.1
2017-01-18T09:22:54.906Z,17.13
2017-01-18T09:24:04.820Z,17.12
2017-01-18T09:25:14.756Z,17.05
2017-01-18T09:26:25.475Z,17.1
2017-01-18T09:27:36.218Z,17.17
2017-01-18T09:28:46.568Z,17.09
2017-01-18T09:29:56.906Z,17.12
2017-01-18T09:31:07.639Z,17.09
2017-01-18T09:32:17.961Z,17.12
2017-01-18T09:33:28.331Z,17.16
2017-01-18T09:34:38.666Z,17.14
2017-01-18T09:35:49.036Z,17.13
2017-01-18T09:36:59.398Z,17.13
2017-01-18T09:38:10.110Z,17.12
2017-01-18T09:39:20.074Z,17.17
2017-01-18T09:40:30.800Z,17.2
2017-01-18T09:41:41.584Z,17.27
2017-01-18T09:42:51.519Z,17.24
2017-01-18T09:44:02.274Z,17.2
2017-01-18T09:45:12.616Z,17.22
2017-01-18T09:46:23.337Z,17.24
2017-01-18T09:47:33.700Z,17.22
2017-01-18T09:48:44.455Z,17.27
2017-01-18T09:49:54.814Z,17.27
2017-01-18T09:51:05.161Z,17.07
2017-01-18T09:52:15.115Z,17.13
2017-01-18T09:53:24.642Z,17.14
2017-01-18T09:54:35.006Z,17.12
2017-01-18T09:55:45.353Z,17.16
2017-01-18T09:56:55.659Z,17.13
2017-01-18T09:58:06.237Z,17.19
2017-01-18T09:59:16.958Z,17.13
2017-01-18T10:00:27.667Z,17.16
2017-01-18T10:01:38.002Z,17.16
2017-01-18T10:02:48.738Z,17.14
2017-01-18T10:03:59.083Z,17.16
2017-01-18T10:05:09.422Z,17.12
2017-01-18T10:06:19.755Z,17.13
2017-01-18T10:07:30.078Z,17.14
2017-01-18T10:08:40.964Z,17.23
2017-01-18T10:09:50.104Z,17.19
2017-01-18T10:11:00.411Z,17.17
2017-01-18T10:12:10.343Z,17.17
2017-01-18T10:13:20.280Z,17.23
2017-01-18T10:14:30.443Z,17.28
2017-01-18T10:15:41.394Z,17.19
2017-01-18T10:16:51.750Z,17.2
2017-01-18T10:18:02.094Z,17.2
2017-01-18T10:19:12.014Z,17.24
2017-01-18T10:20:22.344Z,17.28
2017-01-18T10:21:33.070Z,17.37
2017-01-18T10:22:43.442Z,17.3
2017-01-18T10:23:53.806Z,17.28
2017-01-18T10:25:04.149Z,17.28
2017-01-18T10:26:14.451Z,17.41
2017-01-18T10:27:25.182Z,17.32
2017-01-18T10:28:35.135Z,17.38
2017-01-18T10:29:45.474Z,17.22
2017-01-18T10:30:55.022Z,17.27
2017-01-18T10:32:04.956Z,17.3
2017-01-18T10:33:15.684Z,17.37
2017-01-18T10:34:26.072Z,17.27
2017-01-18T10:35:36.851Z,17.32
2017-01-18T10:36:47.184Z,17.24
2017-01-18T10:37:57.143Z,17.23
2017-01-18T10:39:07.125Z,17.22
2017-01-18T10:40:17.864Z,17.28
2017-01-18T10:41:28.924Z,17.3
2017-01-18T10:42:39.251Z,17.35
2017-01-18T10:43:49.597Z,17.23
2017-01-18T10:44:59.929Z,17.27
2017-01-18T10:46:09.894Z,17.34
2017-01-18T10:47:20.680Z,17.34
2017-01-18T10:48:30.620Z,17.3
2017-01-18T10:49:41.367Z,17.37
2017-01-18T10:50:52.095Z,17.28
2017-01-18T10:52:02.424Z,17.37
2017-01-18T10:53:13.169Z,17.35
2017-01-18T10:54:23.922Z,17.22
2017-01-18T10:55:34.239Z,17.24
2017-01-18T10:56:44.975Z,17.35
2017-01-18T10:57:55.692Z,17.27
2017-01-18T10:59:05.661Z,17.34
2017-01-18T11:00:15.990Z,17.38
2017-01-18T11:01:26.723Z,17.39
2017-01-18T11:02:36.662Z,17.42
2017-01-18T11:03:46.191Z,17.32
2017-01-18T11:04:56.936Z,17.34
2017-01-18T11:06:07.278Z,17.37
2017-01-18T11:07:17.609Z,17.38
2017-01-18T11:08:27.926Z,17.38
2017-01-18T11:09:38.235Z,17.49
2017-01-18T11:10:48.552Z,17.41
2017-01-18T11:11:58.476Z,17.34
2017-01-18T11:13:09.208Z,17.31
2017-01-18T11:14:19.524Z,17.35
2017-01-18T11:15:30.262Z,17.38
2017-01-18T11:16:40.972Z,17.44
2017-01-18T11:17:51.698Z,17.47
2017-01-18T11:19:02.028Z,17.38
2017-01-18T11:20:12.745Z,17.49
2017-01-18T11:21:23.483Z,17.54
2017-01-18T11:22:33.026Z,17.49
2017-01-18T11:23:42.952Z,17.47
2017-01-18T11:24:52.870Z,17.42
2017-01-18T11:26:03.202Z,17.49
2017-01-18T11:27:12.731Z,17.5
2017-01-18T11:28:23.350Z,17.49
2017-01-18T11:29:33.678Z,17.44
2017-01-18T11:30:43.209Z,17.49
2017-01-18T11:31:53.552Z,17.52
2017-01-18T11:33:03.885Z,17.65
2017-01-18T11:34:14.185Z,17.68
2017-01-18T11:35:24.897Z,17.69
2017-01-18T11:36:35.623Z,17.66
2017-01-18T11:37:45.939Z,17.59
2017-01-18T11:38:55.872Z,17.59
2017-01-18T11:40:05.801Z,17.69
2017-01-18T11:41:15.728Z,17.57
2017-01-18T11:42:25.667Z,17.68
2017-01-18T11:43:36.400Z,17.66
2017-01-18T11:44:47.152Z,17.71
2017-01-18T11:45:57.481Z,17.68
2017-01-18T11:47:06.624Z,17.57
2017-01-18T11:48:16.988Z,17.68
2017-01-18T11:49:27.313Z,17.71
2017-01-18T11:50:37.663Z,17.6
2017-01-18T11:51:48.006Z,17.6
2017-01-18T11:52:58.760Z,17.54
2017-01-18T11:54:08.314Z,17.59
2017-01-18T11:55:19.120Z,17.5
2017-01-18T11:56:29.084Z,17.46
2017-01-18T11:57:39.408Z,17.37
2017-01-18T11:58:49.763Z,17.41
2017-01-18T12:00:00.102Z,17.32
2017-01-18T12:01:10.134Z,17.32
2017-01-18T12:02:20.442Z,17.35
2017-01-18T12:03:31.168Z,17.42
2017-01-18T12:04:41.495Z,17.46
2017-01-18T12:05:52.246Z,17.53
2017-01-18T12:07:02.578Z,17.52
2017-01-18T12:08:13.325Z,17.44
2017-01-18T12:09:24.048Z,17.42
2017-01-18T12:10:34.787Z,17.53
2017-01-18T12:11:45.507Z,17.44
2017-01-18T12:12:55.423Z,17.49
2017-01-18T12:14:05.740Z,17.5
2017-01-18T12:15:16.057Z,17.5
2017-01-18T12:16:26.383Z,17.52
2017-01-18T12:17:36.726Z,17.46
2017-01-18T12:18:47.068Z,17.5
2017-01-18T12:19:57.801Z,17.53
2017-01-18T12:21:08.130Z,17.54
2017-01-18T12:22:18.845Z,17.54
2017-01-18T12:23:29.567Z,17.57
2017-01-18T12:24:40.304Z,17.6
2017-01-18T12:25:50.623Z,17.47
2017-01-18T12:27:01.372Z,17.53
2017-01-18T12:28:12.082Z,17.52
2017-01-18T12:29:22.411Z,17.49
2017-01-18T12:30:33.145Z,17.5
2017-01-18T12:31:43.093Z,17.53
2017-01-18T12:32:53.436Z,17.53
2017-01-18T12:34:04.169Z,17.46
2017-01-18T12:35:14.896Z,17.5
2017-01-18T12:36:25.234Z,17.42
2017-01-18T12:37:35.571Z,17.39
2017-01-18T12:38:45.126Z,17.3
2017-01-18T12:39:55.487Z,17.3
2017-01-18T12:41:05.804Z,17.28
2017-01-18T12:42:16.517Z,17.31
2017-01-18T12:43:26.838Z,17.22
2017-01-18T12:44:36.771Z,17.23
2017-01-18T12:45:47.100Z,17.28
2017-01-18T12:46:57.836Z,17.16
2017-01-18T12:48:07.775Z,17.16
2017-01-18T12:49:18.492Z,17.19
2017-01-18T12:50:29.221Z,17.17
2017-01-18T12:51:39.958Z,17.2
2017-01-18T12:52:50.696Z,17.14
2017-01-18T12:54:01.013Z,17.16
2017-01-18T12:55:11.350Z,17.13
2017-01-18T12:56:21.683Z,17.14
2017-01-18T12:57:32.025Z,17.13
2017-01-18T12:58:42.759Z,17.17
2017-01-18T12:59:53.129Z,17.12
2017-01-18T13:01:03.852Z,17.1
2017-01-18T13:02:13.782Z,17.2
2017-01-18T13:03:23.704Z,17.17
2017-01-18T13:04:34.425Z,17.07
2017-01-18T13:05:44.741Z,17.09
2017-01-18T13:06:55.468Z,17.05
2017-01-18T13:08:06.185Z,17.09
2017-01-18T13:09:16.901Z,17.12
2017-01-18T13:10:27.216Z,17.07
2017-01-18T13:11:37.545Z,17.1
2017-01-18T13:12:47.916Z,17.16
2017-01-18T13:13:58.644Z,17.04
2017-01-18T13:15:08.585Z,17.16
2017-01-18T13:16:19.298Z,17.12
2017-01-18T13:17:29.618Z,17.02
2017-01-18T13:18:39.541Z,17.12
2017-01-18T13:19:50.277Z,17.17
2017-01-18T13:21:00.590Z,17.19
2017-01-18T13:22:11.317Z,17.22
2017-01-18T13:23:21.666Z,17.24
2017-01-18T13:24:32.388Z,17.28
2017-01-18T13:25:43.132Z,17.32
2017-01-18T13:26:53.849Z,17.39
2017-01-18T13:28:04.565Z,17.34
2017-01-18T13:29:14.952Z,17.35
2017-01-18T13:30:25.673Z,17.42
2017-01-18T13:31:36.393Z,17.49
2017-01-18T13:32:47.134Z,17.52
2017-01-18T13:33:57.065Z,17.52
2017-01-18T13:35:07.779Z,17.44
2017-01-18T13:36:18.498Z,17.49
2017-01-18T13:37:28.432Z,17.5
2017-01-18T13:38:39.146Z,17.47
2017-01-18T13:39:49.474Z,17.47
2017-01-18T13:40:59.808Z,17.49
2017-01-18T13:42:10.120Z,17.52
2017-01-18T13:43:20.037Z,17.47
2017-01-18T13:44:30.794Z,17.49
2017-01-18T13:45:41.129Z,17.49
2017-01-18T13:46:51.471Z,17.47
2017-01-18T13:48:01.826Z,17.49
2017-01-18T13:49:12.565Z,17.42
2017-01-18T13:50:22.264Z,17.41
2017-01-18T13:51:32.188Z,17.42
2017-01-18T13:52:42.521Z,17.42
2017-01-18T13:53:52.835Z,17.42
2017-01-18T13:55:03.552Z,17.46
2017-01-18T13:56:13.890Z,17.47
2017-01-18T13:57:24.655Z,17.52
2017-01-18T13:58:35.378Z,17.46
2017-01-18T13:59:45.305Z,17.52
2017-01-18T14:00:55.231Z,17.46
2017-01-18T14:02:05.960Z,17.52
2017-01-18T14:03:16.975Z,17.49
2017-01-18T14:04:27.294Z,17.53
2017-01-18T14:05:37.618Z,17.5
2017-01-18T14:06:48.335Z,17.5
2017-01-18T14:07:59.094Z,17.54
2017-01-18T14:09:09.824Z,17.53
2017-01-18T14:10:20.569Z,17.5
2017-01-18T14:11:31.337Z,17.49
2017-01-18T14:12:42.057Z,17.52
2017-01-18T14:13:52.367Z,17.52
2017-01-18T14:15:02.713Z,17.44
2017-01-18T14:16:13.055Z,17.52
2017-01-18T14:17:23.778Z,17.5
2017-01-18T14:18:33.717Z,17.47
2017-01-18T14:19:43.660Z,17.5
2017-01-18T14:20:54.030Z,17.5
2017-01-18T14:22:03.963Z,17.52
2017-01-18T14:23:14.695Z,17.52
2017-01-18T14:24:24.629Z,17.46
2017-01-18T14:25:35.380Z,17.52
2017-01-18T14:26:45.697Z,17.52
2017-01-18T14:27:56.026Z,17.5
2017-01-18T14:29:05.956Z,17.66
2017-01-18T14:30:16.298Z,17.53
2017-01-18T14:31:26.620Z,17.54
2017-01-18T14:32:37.348Z,17.69
2017-01-18T14:33:47.298Z,17.68
2017-01-18T14:34:57.625Z,17.66
2017-01-18T14:36:07.573Z,17.68
2017-01-18T14:37:17.509Z,17.71
2017-01-18T14:38:26.643Z,17.68
2017-01-18T14:39:36.181Z,17.66
2017-01-18T14:40:46.520Z,17.59
2017-01-18T14:41:56.061Z,17.66
2017-01-18T14:43:06.006Z,17.65
2017-01-18T14:44:16.748Z,17.66
2017-01-18T14:45:27.090Z,17.68
2017-01-18T14:46:37.416Z,17.49
2017-01-18T14:47:48.156Z,17.5
2017-01-18T14:48:58.892Z,17.52
2017-01-18T14:50:09.634Z,17.65
2017-01-18T14:51:19.940Z,17.63
2017-01-18T14:52:30.657Z,17.5
2017-01-18T14:53:41.356Z,17.52
2017-01-18T14:54:51.678Z,17.49
2017-01-18T14:56:02.390Z,17.52
2017-01-18T14:57:12.718Z,17.47
2017-01-18T14:58:22.640Z,17.66
2017-01-18T14:59:33.364Z,17.59
2017-01-18T15:00:44.106Z,17.5
2017-01-18T15:01:54.433Z,17.52
2017-01-18T15:03:04.354Z,17.5
2017-01-18T15:04:14.672Z,17.53
2017-01-18T15:05:25.372Z,17.46
2017-01-18T15:06:36.113Z,17.42
2017-01-18T15:07:46.051Z,17.46
2017-01-18T15:08:56.774Z,17.46
2017-01-18T15:10:07.494Z,17.56
2017-01-18T15:11:17.831Z,17.52
2017-01-18T15:12:28.560Z,17.49